Time;durP1;ratioP1;P1;durP2;ratioP2;P2;SDS_P1;SDS_P2;PMS_P1;PMS_P2;Temp;Humidity;BMP_temperature;BMP_pressure;BME280_temperature;BME280_humidity;BME280_pressure;Samples;Min_cycle;Max_cycle;Signal;HPM_P1;HPM_P2
2022/07/25 00:00:13;;;;;;;9.80;7.25;;;;;;;22.01;60.67;101013.75;4994282;28;20249;-71
2022/07/25 00:02:38;;;;;;;17.05;7.88;;;;;;;22.04;61.03;101015.19;4998210;28;20029;-71
2022/07/25 00:05:04;;;;;;;11.68;7.93;;;;;;;21.80;61.98;101011.44;4995268;28;20042;-71
2022/07/25 00:07:30;;;;;;;11.65;7.70;;;;;;;21.97;62.08;101008.91;4988258;28;20026;-71
2022/07/25 00:09:55;;;;;;;11.30;7.25;;;;;;;21.94;61.51;101002.78;4987109;28;20023;-71
2022/07/25 00:12:21;;;;;;;11.43;8.65;;;;;;;21.65;62.58;101009.06;4985811;28;20029;-71
2022/07/25 00:14:47;;;;;;;14.90;9.50;;;;;;;21.77;61.54;100998.13;4991586;28;20018;-71
2022/07/25 00:17:13;;;;;;;19.05;10.45;;;;;;;21.65;62.09;100998.06;5003257;28;20060;-71
2022/07/25 00:19:39;;;;;;;14.55;8.48;;;;;;;21.75;61.91;101005.78;5002458;28;20041;-71
2022/07/25 00:22:04;;;;;;;10.02;7.88;;;;;;;21.82;61.17;100999.13;4993986;28;20034;-71
2022/07/25 00:24:30;;;;;;;10.82;7.95;;;;;;;21.80;60.94;101003.19;4998509;28;20030;-71
2022/07/25 00:26:55;;;;;;;14.23;8.05;;;;;;;21.99;60.03;100995.75;5004044;28;20053;-71
2022/07/25 00:29:21;;;;;;;10.70;8.15;;;;;;;21.93;60.44;101001.13;4999153;28;20049;-71
2022/07/25 00:31:46;;;;;;;11.02;8.13;;;;;;;21.86;60.65;100994.84;4987622;28;20030;-71
2022/07/25 00:34:11;;;;;;;11.60;8.02;;;;;;;21.77;61.00;100990.69;4987215;28;20430;-71
2022/07/25 00:36:37;;;;;;;13.18;7.70;;;;;;;21.78;59.85;100992.41;5003865;28;20112;-71
2022/07/25 00:39:03;;;;;;;12.23;7.60;;;;;;;21.59;59.90;100982.44;4995384;28;20033;-71
2022/07/25 00:41:28;;;;;;;12.90;7.70;;;;;;;21.52;59.24;100987.16;4990000;28;20018;-71
2022/07/25 00:43:54;;;;;;;15.10;7.63;;;;;;;21.70;58.35;100995.44;5006730;28;20151;-70
2022/07/25 00:46:19;;;;;;;10.15;6.80;;;;;;;21.75;58.15;100992.84;4994531;28;20022;-71
2022/07/25 00:48:45;;;;;;;13.23;8.20;;;;;;;21.51;58.46;100985.47;4995651;28;20062;-71
2022/07/25 00:51:10;;;;;;;14.52;7.63;;;;;;;21.62;58.65;100992.97;4999103;28;20034;-71
2022/07/25 00:53:37;;;;;;;10.30;6.75;;;;;;;21.53;57.84;100988.84;5004542;28;20040;-71
2022/07/25 00:56:04;;;;;;;9.40;6.30;;;;;;;21.62;57.83;100987.47;5006193;28;20042;-71
2022/07/25 00:58:29;;;;;;;11.10;7.78;;;;;;;21.65;56.85;100981.53;5005745;28;20026;-71
2022/07/25 01:00:55;;;;;;;10.02;7.10;;;;;;;21.70;56.67;100978.91;5000512;28;20564;-71
2022/07/25 01:03:21;;;;;;;9.68;6.65;;;;;;;21.67;56.72;100979.38;4997220;28;20092;-71
2022/07/25 01:05:46;;;;;;;12.57;6.93;;;;;;;21.88;56.22;100976.13;4989362;28;20077;-71
2022/07/25 01:08:12;;;;;;;10.50;6.22;;;;;;;21.89;55.82;100977.81;4996241;28;20034;-71
2022/07/25 01:10:38;;;;;;;10.45;6.18;;;;;;;21.80;56.35;100973.69;4995597;28;20025;-71
2022/07/25 01:13:04;;;;;;;10.27;6.55;;;;;;;21.73;56.80;100967.44;4988936;28;20030;-71
2022/07/25 01:15:29;;;;;;;9.13;6.15;;;;;;;21.72;55.96;100965.75;4986974;28;20439;-71
2022/07/25 01:17:55;;;;;;;9.38;6.70;;;;;;;21.68;56.20;100964.50;5000380;28;20030;-71
2022/07/25 01:20:25;;;;;;;9.48;5.38;;;;;;;21.79;55.29;100961.00;4997644;28;20040;-71
2022/07/25 01:22:52;;;;;;;9.60;6.33;;;;;;;21.76;54.69;100953.16;4996662;28;20115;-71
2022/07/25 01:25:18;;;;;;;10.18;5.63;;;;;;;21.78;55.38;100958.44;4992653;28;20069;-71
2022/07/25 01:27:44;;;;;;;15.68;6.85;;;;;;;21.90;54.17;100962.97;4994149;28;20018;-72
2022/07/25 01:30:40;;;;;;;13.90;6.20;;;;;;;21.77;54.61;100963.13;4989842;28;20039;-71
2022/07/25 01:33:06;;;;;;;11.35;5.97;;;;;;;21.82;54.27;100948.66;5002001;28;20026;-71
2022/07/25 01:35:31;;;;;;;11.05;5.72;;;;;;;21.85;54.94;100960.06;4992383;28;20033;-71
2022/07/25 01:37:56;;;;;;;14.35;6.10;;;;;;;21.91;53.90;100953.63;4985562;28;20030;-71
2022/07/25 01:40:22;;;;;;;9.50;5.80;;;;;;;21.78;53.74;100948.28;4997900;28;20400;-71
2022/07/25 01:42:47;;;;;;;13.30;6.00;;;;;;;21.79;54.09;100955.47;4996596;28;20045;-71
2022/07/25 01:45:12;;;;;;;12.70;6.00;;;;;;;21.66;54.33;100950.97;5005421;28;20026;-71
2022/07/25 01:47:38;;;;;;;12.07;6.40;;;;;;;21.55;54.11;100942.63;4997917;28;20019;-71
2022/07/25 01:50:04;;;;;;;8.50;5.45;;;;;;;21.69;54.11;100938.63;4996775;28;20401;-71
2022/07/25 01:52:30;;;;;;;8.07;5.57;;;;;;;21.65;53.86;100941.03;4998556;28;20068;-71
2022/07/25 01:54:55;;;;;;;6.95;5.28;;;;;;;21.66;53.59;100936.34;4993707;28;20121;-71
2022/07/25 01:57:20;;;;;;;7.82;5.57;;;;;;;21.77;53.26;100940.22;4996163;28;20030;-71
2022/07/25 01:59:46;;;;;;;10.00;5.30;;;;;;;21.54;53.30;100940.94;4988486;28;20062;-71
2022/07/25 02:02:11;;;;;;;7.28;5.63;;;;;;;21.58;53.69;100933.88;5002469;28;20033;-71
2022/07/25 02:04:37;;;;;;;7.55;5.47;;;;;;;21.63;52.85;100934.03;4994124;28;20108;-71
2022/07/25 02:07:02;;;;;;;7.72;5.53;;;;;;;21.37;52.77;100927.75;5004151;28;20022;-71
2022/07/25 02:09:28;;;;;;;12.75;5.00;;;;;;;21.36;52.93;100915.06;5003624;28;20025;-71
2022/07/25 02:11:54;;;;;;;16.40;5.53;;;;;;;21.56;52.22;100916.75;5006008;28;20025;-71
2022/07/25 02:14:19;;;;;;;7.50;5.15;;;;;;;21.68;51.83;100915.75;5004085;28;20078;-72
2022/07/25 02:16:44;;;;;;;10.95;4.95;;;;;;;21.57;51.77;100910.16;5005377;28;20025;-71
2022/07/25 02:19:10;;;;;;;6.55;4.47;;;;;;;21.43;52.09;100911.38;5002281;28;20029;-71
2022/07/25 02:21:36;;;;;;;9.85;4.90;;;;;;;21.55;51.33;100899.38;5003419;28;20037;-72
2022/07/25 02:24:02;;;;;;;8.32;4.28;;;;;;;21.53;51.51;100901.53;4991384;28;20119;-71
2022/07/25 02:26:27;;;;;;;7.40;4.10;;;;;;;21.56;51.82;100900.22;4986723;28;20563;-71
2022/07/25 02:28:53;;;;;;;6.55;4.55;;;;;;;21.52;50.91;100887.97;4995129;28;20052;-71
2022/07/25 02:31:18;;;;;;;8.50;4.47;;;;;;;21.57;51.20;100890.88;4992951;28;20037;-71
2022/07/25 02:33:45;;;;;;;8.75;4.90;;;;;;;21.63;50.80;100889.94;5000885;28;20029;-71
2022/07/25 02:36:11;;;;;;;7.60;4.30;;;;;;;21.53;51.58;100878.66;4987002;28;20026;-71
2022/07/25 02:38:36;;;;;;;7.38;4.22;;;;;;;21.52;50.83;100876.97;5003880;28;20033;-71
2022/07/25 02:41:02;;;;;;;7.93;4.40;;;;;;;21.55;50.57;100876.50;4994633;28;20025;-71
2022/07/25 02:43:27;;;;;;;6.57;3.80;;;;;;;21.57;50.88;100879.84;5000232;28;20030;-71
2022/07/25 02:45:53;;;;;;;10.77;3.78;;;;;;;21.58;50.31;100881.53;4997170;28;20026;-71
2022/07/25 02:48:18;;;;;;;12.55;4.40;;;;;;;21.64;50.34;100875.09;5002167;28;20423;-71
2022/07/25 02:50:44;;;;;;;13.27;3.97;;;;;;;21.63;50.17;100867.91;4995401;28;20026;-71
2022/07/25 02:53:09;;;;;;;14.48;4.20;;;;;;;21.52;50.24;100876.97;4986154;28;20463;-71
2022/07/25 02:55:35;;;;;;;7.20;4.40;;;;;;;21.40;50.40;100866.69;5000775;28;20147;-71
2022/07/25 02:58:00;;;;;;;8.32;3.80;;;;;;;21.50;49.94;100857.03;5002060;28;20116;-71
2022/07/25 03:00:26;;;;;;;7.30;3.70;;;;;;;21.49;50.16;100860.88;4994343;28;20026;-70
2022/07/25 03:02:52;;;;;;;9.23;3.90;;;;;;;21.47;49.75;100857.53;4994795;28;20052;-71
2022/07/25 03:05:17;;;;;;;7.63;3.53;;;;;;;21.46;50.42;100853.09;4985264;28;20117;-71
2022/07/25 03:07:44;;;;;;;11.27;4.05;;;;;;;21.55;50.73;100854.44;4994293;28;20019;-71
2022/07/25 03:10:11;;;;;;;13.80;3.90;;;;;;;21.47;50.72;100858.38;4998398;28;20072;-71
2022/07/25 03:12:37;;;;;;;12.43;4.10;;;;;;;21.35;50.85;100860.19;4991310;28;20064;-70
2022/07/25 03:15:04;;;;;;;7.38;4.13;;;;;;;21.23;50.45;100857.31;4987069;28;20036;-71
2022/07/25 03:17:29;;;;;;;8.57;3.78;;;;;;;21.27;50.54;100847.53;5002029;28;20032;-71
2022/07/25 03:19:55;;;;;;;11.52;3.92;;;;;;;21.22;50.57;100850.13;4993434;28;20030;-71
2022/07/25 03:22:21;;;;;;;12.38;3.50;;;;;;;21.31;50.43;100843.28;4990859;28;20080;-71
2022/07/25 03:24:47;;;;;;;9.68;3.40;;;;;;;21.30;50.71;100838.84;4993771;28;20060;-72
2022/07/25 03:27:13;;;;;;;5.40;3.30;;;;;;;21.34;49.61;100840.09;4990455;28;20026;-71
2022/07/25 03:29:39;;;;;;;20.90;3.83;;;;;;;21.39;50.06;100822.88;4991158;28;20033;-71
2022/07/25 03:32:05;;;;;;;7.05;3.58;;;;;;;21.47;49.34;100824.47;4993827;28;20399;-71
2022/07/25 03:34:30;;;;;;;5.15;3.40;;;;;;;21.32;49.50;100822.94;4995553;28;20041;-70
2022/07/25 03:36:56;;;;;;;9.35;3.47;;;;;;;21.32;50.21;100811.94;4987034;28;20034;-71
2022/07/25 03:39:23;;;;;;;5.55;3.58;;;;;;;21.37;49.47;100809.31;4986619;28;20196;-71
2022/07/25 03:41:49;;;;;;;6.10;3.88;;;;;;;21.32;50.04;100806.44;4993858;28;20056;-71
2022/07/25 03:44:14;;;;;;;9.18;4.18;;;;;;;21.35;49.31;100805.94;4995409;28;20018;-71
2022/07/25 03:46:40;;;;;;;13.02;3.35;;;;;;;21.31;49.42;100804.72;4993638;28;20037;-71
2022/07/25 03:49:05;;;;;;;5.65;3.33;;;;;;;21.45;49.26;100804.53;4985674;28;20033;-71
2022/07/25 03:51:31;;;;;;;11.90;3.80;;;;;;;21.31;49.00;100799.22;4998196;28;20097;-71
2022/07/25 03:54:02;;;;;;;4.47;3.50;;;;;;;21.40;49.00;100785.97;4989597;28;20466;-71
2022/07/25 03:56:39;;;;;;;7.78;3.50;;;;;;;21.43;48.86;100796.53;5000969;28;20036;-73
2022/07/25 03:59:05;;;;;;;6.97;3.40;;;;;;;21.48;48.98;100798.59;4994775;28;20056;-71
2022/07/25 04:01:31;;;;;;;5.60;3.22;;;;;;;21.33;49.48;100786.06;4985806;28;20031;-72
2022/07/25 04:03:57;;;;;;;14.27;2.80;;;;;;;21.43;49.29;100790.19;4994781;28;20025;-71
2022/07/25 04:06:23;;;;;;;7.55;2.95;;;;;;;21.37;48.97;100792.78;4983877;28;20023;-71
2022/07/25 04:08:49;;;;;;;8.80;3.05;;;;;;;21.39;48.94;100785.16;4987433;28;20040;-71
2022/07/25 04:11:14;;;;;;;7.85;3.08;;;;;;;21.46;48.31;100778.72;5000084;28;20037;-70
2022/07/25 04:13:40;;;;;;;5.90;3.17;;;;;;;21.46;48.51;100782.31;4995071;28;20551;-71
2022/07/25 04:16:06;;;;;;;7.43;4.03;;;;;;;21.48;49.14;100776.56;4989690;28;20022;-70
2022/07/25 04:18:31;;;;;;;9.35;3.53;;;;;;;21.63;48.29;100774.22;4984919;28;20030;-71
2022/07/25 04:20:57;;;;;;;6.07;3.28;;;;;;;21.67;48.69;100772.69;4985225;28;20165;-71
2022/07/25 04:23:22;;;;;;;7.00;3.25;;;;;;;21.68;48.07;100760.59;4994891;28;20389;-71
2022/07/25 04:25:47;;;;;;;8.95;3.33;;;;;;;21.49;49.04;100767.22;5001634;28;20021;-71
2022/07/25 04:28:13;;;;;;;6.88;3.25;;;;;;;21.56;48.39;100756.94;4992189;28;20038;-71
2022/07/25 04:30:38;;;;;;;9.13;3.53;;;;;;;21.55;48.57;100753.34;4984042;28;20046;-71
2022/07/25 04:33:03;;;;;;;5.32;3.58;;;;;;;21.68;48.26;100749.56;4991302;28;20041;-71
2022/07/25 04:35:29;;;;;;;7.07;3.50;;;;;;;21.73;48.47;100746.94;4997872;28;20421;-71
2022/07/25 04:37:54;;;;;;;10.68;3.15;;;;;;;21.69;47.92;100740.22;4994221;28;20125;-71
2022/07/25 04:40:20;;;;;;;7.45;3.25;;;;;;;21.72;48.57;100734.25;5001240;28;20377;-71
2022/07/25 04:42:45;;;;;;;5.93;3.13;;;;;;;21.81;47.67;100738.34;5001216;28;20117;-71
2022/07/25 04:45:11;;;;;;;5.05;3.15;;;;;;;21.76;48.09;100729.94;4985527;28;20018;-71
2022/07/25 04:47:37;;;;;;;6.40;3.10;;;;;;;21.70;48.06;100728.09;4998877;28;20018;-71
2022/07/25 04:50:02;;;;;;;9.52;3.40;;;;;;;21.87;47.65;100726.38;5002076;28;20029;-71
2022/07/25 04:52:28;;;;;;;7.47;3.20;;;;;;;21.92;47.97;100717.41;5001854;28;20030;-71
2022/07/25 04:54:53;;;;;;;8.32;3.10;;;;;;;21.93;48.36;100722.66;4983877;28;20031;-71
2022/07/25 04:57:18;;;;;;;5.72;3.03;;;;;;;21.87;47.49;100715.34;4984510;28;20053;-71
2022/07/25 04:59:44;;;;;;;5.25;3.17;;;;;;;22.08;48.21;100710.34;4989803;28;20022;-71
2022/07/25 05:02:09;;;;;;;6.10;3.08;;;;;;;22.15;47.86;100716.59;4995267;28;20037;-71
2022/07/25 05:04:35;;;;;;;10.70;3.40;;;;;;;22.12;47.11;100706.91;4996403;28;20066;-71
2022/07/25 05:07:01;;;;;;;5.78;3.25;;;;;;;22.09;47.20;100707.38;4994132;28;20104;-71
2022/07/25 05:09:26;;;;;;;5.47;3.63;;;;;;;22.16;47.21;100705.31;4998315;28;20126;-71
2022/07/25 05:11:52;;;;;;;9.02;3.47;;;;;;;21.93;47.90;100697.84;5002733;28;20116;-71
2022/07/25 05:14:17;;;;;;;8.25;3.13;;;;;;;21.95;47.34;100694.84;4996286;28;20026;-72
2022/07/25 05:16:43;;;;;;;12.07;3.30;;;;;;;22.10;47.34;100702.69;5001080;28;20033;-72
2022/07/25 05:19:08;;;;;;;7.57;3.33;;;;;;;22.23;47.18;100691.41;4986069;28;20049;-73
2022/07/25 05:21:33;;;;;;;10.50;3.20;;;;;;;22.34;47.28;100681.47;4995216;28;20018;-72
2022/07/25 05:23:59;;;;;;;12.07;3.30;;;;;;;22.20;47.51;100689.16;5003944;28;20020;-72
2022/07/25 05:26:24;;;;;;;7.07;3.20;;;;;;;22.26;47.12;100690.97;5000875;28;20041;-72
2022/07/25 05:28:49;;;;;;;9.52;3.53;;;;;;;22.29;47.10;100684.94;4988086;28;20037;-72
2022/07/25 05:31:15;;;;;;;9.75;3.20;;;;;;;22.33;46.92;100680.63;4998095;28;20155;-72
2022/07/25 05:33:41;;;;;;;8.07;3.40;;;;;;;22.41;46.57;100677.50;4996228;28;20036;-72
2022/07/25 05:36:07;;;;;;;11.95;3.15;;;;;;;22.38;46.62;100672.47;5004520;28;20033;-72
2022/07/25 05:38:33;;;;;;;6.53;3.38;;;;;;;22.42;46.68;100673.66;5004446;28;20038;-72
2022/07/25 05:40:59;;;;;;;8.70;3.50;;;;;;;22.72;46.07;100669.91;4995601;28;20108;-72
2022/07/25 05:43:24;;;;;;;5.97;3.25;;;;;;;22.66;46.37;100670.88;5001630;28;20040;-72
2022/07/25 05:45:50;;;;;;;7.30;3.20;;;;;;;22.78;46.00;100666.19;4997117;28;20026;-72
2022/07/25 05:48:16;;;;;;;5.32;3.30;;;;;;;22.82;45.97;100653.56;4996990;28;20519;-71
2022/07/25 05:50:42;;;;;;;13.77;3.65;;;;;;;22.97;46.02;100656.66;4987560;28;20022;-72
2022/07/25 05:53:07;;;;;;;4.65;2.55;;;;;;;22.98;45.94;100655.59;5003696;28;20109;-72
2022/07/25 05:55:32;;;;;;;5.68;3.10;;;;;;;22.94;45.87;100657.16;4992278;28;20096;-72
2022/07/25 05:57:58;;;;;;;8.20;3.38;;;;;;;23.16;45.33;100653.72;4996453;28;20026;-72
2022/07/25 06:00:24;;;;;;;6.88;3.22;;;;;;;23.18;45.60;100648.78;4993283;28;20117;-72
2022/07/25 06:02:49;;;;;;;7.70;3.33;;;;;;;23.11;45.27;100645.34;4992803;28;20026;-72
2022/07/25 06:05:14;;;;;;;8.15;3.10;;;;;;;23.15;45.62;100646.53;4998681;28;20022;-72
2022/07/25 06:07:40;;;;;;;8.38;3.30;;;;;;;23.30;45.28;100641.28;4996583;28;20022;-72
2022/07/25 06:10:06;;;;;;;11.90;3.40;;;;;;;23.35;45.50;100635.03;4997527;28;20026;-72
2022/07/25 06:12:32;;;;;;;10.75;3.30;;;;;;;23.32;44.95;100641.84;4982895;28;20393;-71
2022/07/25 06:14:58;;;;;;;14.30;3.08;;;;;;;23.52;45.32;100639.47;4986607;28;20033;-72
2022/07/25 06:17:24;;;;;;;11.18;3.30;;;;;;;23.56;45.32;100634.28;4994082;28;20026;-72
2022/07/25 06:19:49;;;;;;;6.88;3.40;;;;;;;23.83;44.80;100628.97;4990756;28;20018;-72
2022/07/25 06:22:15;;;;;;;5.47;3.13;;;;;;;23.90;44.51;100613.03;5000711;28;20022;-72
2022/07/25 06:24:40;;;;;;;9.15;3.08;;;;;;;23.90;44.78;100613.03;4994532;28;20038;-71
2022/07/25 06:27:07;;;;;;;11.93;3.72;;;;;;;23.83;44.76;100612.38;4997216;28;20046;-71
2022/07/25 06:29:33;;;;;;;5.05;3.35;;;;;;;23.88;44.79;100612.47;4995049;28;20022;-71
2022/07/25 06:31:58;;;;;;;8.43;3.25;;;;;;;23.94;44.98;100614.22;4997213;28;20022;-71
2022/07/25 06:34:24;;;;;;;7.65;2.90;;;;;;;24.19;44.41;100612.91;4985498;28;20440;-71
2022/07/25 06:36:49;;;;;;;4.13;2.75;;;;;;;24.12;44.92;100609.47;4985943;28;20037;-71
2022/07/25 06:39:14;;;;;;;6.57;3.22;;;;;;;24.32;44.17;100604.22;4992664;28;20046;-72
2022/07/25 06:41:39;;;;;;;7.80;3.90;;;;;;;24.32;44.61;100604.22;4996936;28;20022;-73
2022/07/25 06:44:05;;;;;;;10.95;3.30;;;;;;;24.46;44.11;100600.03;4995072;28;20023;-72
2022/07/25 06:46:31;;;;;;;7.78;3.38;;;;;;;24.68;43.55;100601.97;4988180;28;20045;-72
2022/07/25 06:48:58;;;;;;;6.80;4.00;;;;;;;24.67;43.55;100597.53;4995625;28;20075;-73
2022/07/25 06:51:24;;;;;;;8.50;3.50;;;;;;;24.89;43.40;100601.09;4997954;28;20009;-73
2022/07/25 06:53:49;;;;;;;6.25;3.83;;;;;;;25.23;43.23;100598.16;5000706;28;20029;-72
2022/07/25 06:56:14;;;;;;;9.70;3.47;;;;;;;25.38;42.38;100595.56;5001354;28;20124;-72
2022/07/25 06:58:40;;;;;;;9.95;3.50;;;;;;;25.10;42.90;100600.28;4997405;28;20161;-72
2022/07/25 07:01:05;;;;;;;9.25;3.30;;;;;;;25.09;42.87;100587.50;4991509;28;20029;-72
2022/07/25 07:03:36;;;;;;;5.68;3.22;;;;;;;25.12;42.83;100581.44;4999699;28;20380;-73
2022/07/25 07:06:03;;;;;;;7.43;2.97;;;;;;;25.12;43.07;100578.69;4999813;28;20014;-72
2022/07/25 07:08:28;;;;;;;4.55;3.42;;;;;;;25.24;43.24;100583.22;4998911;28;20025;-72
2022/07/25 07:10:53;;;;;;;9.95;3.40;;;;;;;25.16;43.46;100577.03;4992050;28;20022;-72
2022/07/25 07:13:20;;;;;;;6.50;3.10;;;;;;;25.41;43.20;100578.38;5001119;28;20017;-70
2022/07/25 07:15:48;;;;;;;6.28;3.63;;;;;;;25.64;42.71;100578.03;4996235;28;20026;-71
2022/07/25 07:18:17;;;;;;;4.55;2.95;;;;;;;25.69;42.69;100580.00;4991976;28;20034;-71
2022/07/25 07:20:43;;;;;;;4.72;3.20;;;;;;;25.63;42.47;100573.59;4997768;28;20017;-71
2022/07/25 07:23:08;;;;;;;12.38;3.65;;;;;;;26.02;41.96;100572.47;4985824;28;20535;-72
2022/07/25 07:25:34;;;;;;;22.70;3.97;;;;;;;26.05;42.15;100570.03;4986024;28;20026;-72
2022/07/25 07:27:59;;;;;;;5.40;3.10;;;;;;;26.01;42.04;100566.09;4999441;28;20045;-72
2022/07/25 07:30:25;;;;;;;8.35;3.22;;;;;;;26.12;41.68;100572.56;4997604;28;20027;-73
2022/07/25 07:32:50;;;;;;;9.75;3.60;;;;;;;25.86;42.41;100568.78;4994216;28;20025;-72
2022/07/25 07:35:17;;;;;;;11.00;3.70;;;;;;;26.08;42.25;100561.19;4999876;28;20018;-73
2022/07/25 07:37:44;;;;;;;12.43;4.63;;;;;;;26.29;42.07;100550.19;4992436;28;20025;-73
2022/07/25 07:40:12;;;;;;;13.15;4.45;;;;;;;26.55;41.96;100554.75;4992728;28;20037;-72
2022/07/25 07:42:43;;;;;;;5.30;3.70;;;;;;;26.85;41.01;100550.38;4989368;28;20037;-72
2022/07/25 07:45:22;;;;;;;5.85;3.92;;;;;;;27.00;41.18;100548.50;4997355;28;20033;-72
2022/07/25 07:47:50;;;;;;;13.60;4.40;;;;;;;27.01;41.07;100540.97;4992366;28;20041;-72
2022/07/25 07:50:17;;;;;;;13.93;4.80;;;;;;;27.34;40.35;100533.25;4995326;28;20018;-72
2022/07/25 07:52:44;;;;;;;8.25;3.78;;;;;;;27.03;41.01;100538.75;4993834;28;20022;-73
2022/07/25 07:57:54;;;;;;;13.40;4.95;;;;;;;27.43;40.05;100520.47;4996502;28;20052;-73
2022/07/25 08:00:21;;;;;;;17.42;4.75;;;;;;;27.94;38.72;100520.41;4995374;28;20029;-73
2022/07/25 08:02:50;;;;;;;12.32;4.32;;;;;;;27.84;38.96;100521.25;4973960;28;20141;-73
2022/07/25 08:05:25;;;;;;;20.38;4.63;;;;;;;28.18;38.70;100515.88;4982495;28;20556;-73
2022/07/25 08:07:51;;;;;;;8.52;4.90;;;;;;;28.01;38.78;100520.94;4998594;28;20123;-72
2022/07/25 08:10:25;;;;;;;11.38;5.00;;;;;;;28.38;38.40;100507.47;4991501;28;20026;-73
2022/07/25 08:12:51;;;;;;;14.55;5.47;;;;;;;28.39;37.76;100506.34;5002359;28;20117;-72
2022/07/25 08:15:18;;;;;;;18.52;4.93;;;;;;;28.76;37.24;100505.03;4992423;28;20108;-73
2022/07/25 08:17:45;;;;;;;13.80;4.65;;;;;;;28.75;37.14;100503.34;5001193;28;20083;-73
2022/07/25 08:20:11;;;;;;;13.00;5.25;;;;;;;28.78;37.44;100497.22;5002609;28;20045;-73
2022/07/25 08:22:42;;;;;;;7.13;4.47;;;;;;;28.61;37.21;100502.34;4989239;28;20057;-73
2022/07/25 08:25:19;;;;;;;19.58;5.05;;;;;;;28.32;38.36;100493.88;4992534;28;20042;-72
2022/07/25 08:27:45;;;;;;;10.18;5.45;;;;;;;28.84;37.49;100490.50;4992566;28;20111;-73
2022/07/25 08:30:12;;;;;;;10.82;4.88;;;;;;;28.98;37.28;100506.59;4997173;28;20011;-72
2022/07/25 08:32:52;;;;;;;11.52;5.47;;;;;;;29.04;36.94;100497.06;4997994;28;20173;-73
2022/07/25 08:35:19;;;;;;;9.27;4.95;;;;;;;29.34;36.33;100494.03;4997627;28;20072;-73
2022/07/25 08:37:45;;;;;;;16.85;5.15;;;;;;;29.54;35.85;100492.19;4992317;28;20574;-72
2022/07/25 08:40:13;;;;;;;11.13;5.00;;;;;;;29.57;35.55;100486.88;4997025;28;20027;-73
2022/07/25 08:42:40;;;;;;;7.90;4.32;;;;;;;29.76;34.94;100486.94;4997743;28;20018;-73
2022/07/25 08:45:08;;;;;;;12.27;5.50;;;;;;;29.92;34.81;100487.59;5015986;28;20022;-73
2022/07/25 08:47:34;;;;;;;7.25;4.80;;;;;;;30.08;34.39;100477.09;5006536;28;20053;-73
2022/07/25 08:50:03;;;;;;;10.95;5.65;;;;;;;30.12;34.00;100464.22;4991270;28;20037;-73
2022/07/25 08:52:28;;;;;;;9.30;5.40;;;;;;;30.13;34.16;100471.50;4993402;28;20030;-72
2022/07/25 08:54:54;;;;;;;10.85;5.28;;;;;;;30.45;33.86;100462.38;4999443;28;20061;-72
2022/07/25 08:57:20;;;;;;;14.38;5.13;;;;;;;30.91;33.59;100456.97;4995052;28;20113;-73
2022/07/25 08:59:45;;;;;;;11.13;5.60;;;;;;;30.26;33.84;100462.38;4988455;28;20015;-72
2022/07/25 09:02:14;;;;;;;12.93;5.13;;;;;;;30.88;32.86;100454.78;4997885;28;20032;-72
2022/07/25 09:04:39;;;;;;;9.55;5.32;;;;;;;30.70;33.35;100445.25;5005178;28;20392;-72
2022/07/25 09:07:06;;;;;;;9.10;5.28;;;;;;;31.23;32.86;100444.13;5001977;28;20026;-72
2022/07/25 09:09:34;;;;;;;15.23;5.82;;;;;;;31.59;32.30;100435.94;4992213;28;20276;-72
2022/07/25 09:12:00;;;;;;;15.82;5.80;;;;;;;30.78;32.53;100449.38;4997614;28;21005;-72
2022/07/25 09:14:27;;;;;;;14.18;5.82;;;;;;;30.76;32.72;100446.03;4988593;28;20026;-72
2022/07/25 09:16:55;;;;;;;10.63;5.18;;;;;;;31.35;32.21;100441.69;5001300;28;20021;-72
2022/07/25 09:19:24;;;;;;;11.73;5.40;;;;;;;31.76;31.73;100435.34;4998378;28;20022;-73
2022/07/25 09:22:02;;;;;;;16.33;5.75;;;;;;;32.21;31.07;100441.13;5002836;28;20018;-72
2022/07/25 09:24:28;;;;;;;14.52;5.03;;;;;;;31.86;31.51;100446.34;4998141;28;20025;-72
2022/07/25 09:26:57;;;;;;;8.10;5.57;;;;;;;31.13;32.18;100438.72;5000630;28;20019;-72
2022/07/25 09:29:25;;;;;;;14.07;6.30;;;;;;;30.92;32.78;100444.66;4998865;28;20028;-72
2022/07/25 09:31:52;;;;;;;13.30;5.85;;;;;;;30.98;32.42;100431.44;5003668;28;20025;-72
2022/07/25 09:34:39;;;;;;;8.25;5.75;;;;;;;30.69;33.13;100437.19;4996736;28;20033;-72
2022/07/25 09:37:11;;;;;;;10.65;5.45;;;;;;;31.17;32.41;100428.56;4995650;28;20053;-72
2022/07/25 09:39:46;;;;;;;10.18;5.25;;;;;;;32.05;31.61;100427.47;4995065;28;20134;-73
2022/07/25 09:42:25;;;;;;;13.68;5.60;;;;;;;32.59;31.24;100420.09;4994119;28;20033;-73
2022/07/25 09:45:13;;;;;;;12.27;5.13;;;;;;;32.41;31.24;100418.31;4997993;28;20117;-73
2022/07/25 09:47:52;;;;;;;6.57;5.18;;;;;;;32.34;30.36;100426.28;4997920;28;20041;-73
2022/07/25 09:50:19;;;;;;;11.82;5.75;;;;;;;32.13;31.04;100417.47;4996018;28;20015;-72
2022/07/25 09:52:45;;;;;;;19.52;5.50;;;;;;;32.50;30.20;100422.00;5004970;28;20030;-73
2022/07/25 09:55:13;;;;;;;7.95;5.20;;;;;;;32.64;30.74;100417.19;4986345;28;20038;-72
2022/07/25 09:57:39;;;;;;;7.43;5.22;;;;;;;32.63;30.14;100409.91;4986493;28;20098;-72
2022/07/25 10:00:06;;;;;;;10.88;5.38;;;;;;;32.63;30.99;100404.31;4987951;28;20166;-73
2022/07/25 10:02:43;;;;;;;7.70;5.82;;;;;;;32.59;30.06;100400.47;4987679;28;20022;-72
2022/07/25 10:05:25;;;;;;;16.65;6.47;;;;;;;32.90;30.41;100397.78;4998867;28;20093;-73
2022/07/25 10:07:54;;;;;;;16.92;6.47;;;;;;;32.26;30.20;100404.59;4995530;28;20108;-72
2022/07/25 10:10:31;;;;;;;9.00;5.85;;;;;;;32.06;30.87;100406.72;4995924;28;20022;-73
2022/07/25 10:13:10;;;;;;;13.93;5.82;;;;;;;32.39;30.35;100398.16;4997263;28;20071;-73
2022/07/25 10:16:02;;;;;;;15.43;5.45;;;;;;;32.02;30.16;100394.50;4996663;28;20022;-72
2022/07/25 10:18:29;;;;;;;8.00;5.40;;;;;;;31.83;30.91;100402.19;4982557;28;20061;-74
2022/07/25 10:21:09;;;;;;;6.97;5.63;;;;;;;32.38;30.09;100396.50;4996748;28;20037;-73
2022/07/25 10:23:34;;;;;;;12.80;6.00;;;;;;;32.00;30.89;100396.75;4997077;28;20052;-73
2022/07/25 10:26:09;;;;;;;9.90;5.47;;;;;;;31.94;30.42;100400.81;4999411;28;20081;-72
2022/07/25 10:28:46;;;;;;;13.82;6.20;;;;;;;32.01;30.23;100381.59;4996394;28;20141;-73
2022/07/25 10:31:20;;;;;;;11.35;5.55;;;;;;;32.01;30.20;100392.81;4998736;28;20026;-73
2022/07/25 10:33:58;;;;;;;10.10;5.35;;;;;;;31.74;30.62;100392.81;4996494;28;20513;-73
2022/07/25 10:36:41;;;;;;;7.60;4.70;;;;;;;31.80;30.84;100391.59;4994693;28;20022;-73
2022/07/25 10:39:07;;;;;;;18.77;5.80;;;;;;;32.07;30.44;100380.34;4990219;28;20030;-73
2022/07/25 10:41:38;;;;;;;8.73;4.85;;;;;;;31.94;30.09;100392.41;5005247;28;20469;-73
2022/07/25 10:44:03;;;;;;;15.40;5.10;;;;;;;31.82;30.71;100384.56;4994671;28;20096;-73
2022/07/25 10:46:33;;;;;;;6.50;5.30;;;;;;;31.65;30.91;100394.69;4993288;28;20492;-73
2022/07/25 10:49:02;;;;;;;6.07;4.97;;;;;;;31.64;30.93;100376.25;4989685;28;20021;-72
2022/07/25 10:51:32;;;;;;;7.55;5.40;;;;;;;31.94;30.18;100370.00;4996519;28;20022;-73
2022/07/25 10:53:57;;;;;;;11.10;5.65;;;;;;;31.87;30.71;100378.00;5017793;28;20022;-73
2022/07/25 10:56:26;;;;;;;11.82;5.32;;;;;;;31.68;31.14;100382.84;4991332;28;20033;-74
2022/07/25 10:58:59;;;;;;;11.27;6.00;;;;;;;31.90;30.91;100368.16;4994158;28;20097;-73
2022/07/25 11:01:30;;;;;;;13.52;5.63;;;;;;;32.22;30.65;100372.78;4993527;28;20076;-74
2022/07/25 11:03:59;;;;;;;9.55;5.57;;;;;;;32.12;30.59;100369.03;4994855;28;20026;-74
2022/07/25 11:06:33;;;;;;;8.88;5.18;;;;;;;31.57;30.97;100363.47;4993767;28;20018;-73
2022/07/25 11:09:00;;;;;;;8.60;5.45;;;;;;;31.59;31.18;100369.59;4996001;28;20017;-73
2022/07/25 11:11:34;;;;;;;9.55;5.50;;;;;;;31.88;30.95;100362.84;4998793;28;20014;-74
2022/07/25 11:13:59;;;;;;;8.77;4.97;;;;;;;31.67;31.84;100358.81;4998988;28;20024;-73
2022/07/25 11:16:26;;;;;;;7.93;5.50;;;;;;;31.56;31.25;100369.38;4989826;28;20034;-73
2022/07/25 11:18:53;;;;;;;11.98;5.88;;;;;;;31.37;32.04;100361.09;4995649;28;20472;-73
2022/07/25 11:21:18;;;;;;;9.13;5.47;;;;;;;31.61;31.41;100370.09;4993797;28;20034;-73
2022/07/25 11:23:49;;;;;;;10.93;5.32;;;;;;;31.64;31.35;100370.63;4999000;28;20388;-73